Airfield :
LOGIN :

Register | Disclaimer

   EN    FR    IT 

 










Legend :    VFR   Marginal VFR   IFR   Intensive IFR   Very Intensive IFR
Visi :
Ceiling :
>= 8 km
>= 3000ft
5 to 8 km
1000 to 3000 ft
1500m to 5 km
500 to 1000 ft
800 to 1500m
200 to 500 ft
< 800m
< 200 ft
Symbols :   Thunderstorms  Fog  Heavy snow  Heavy precipitations  Wind > 20 kt
SIGMETs :     Misc.  Thunderstorms  Icing  Turbulence  Mountain Waves  Volcanic Ashes







- Airport Elevation : 436 ft
- IATA code : BTS


LZIB - Bratislava

CURRENT METAR :
  • 162300Z 31014KT 9999 FEW043 SCT080 20/15 Q1018

EXPIRED METARs :
  • 162230Z 33011KT 9999 FEW026 BKN076 21/15 Q1018
  • 162200Z 31010KT 260V340 9999 FEW025 BKN076 22/15 Q1018 WS ALL RWY
  • 162130Z 32008KT 290V360 9999 FEW030 SCT078 22/16 Q1018 WS ALL RWY
  • 162100Z 33013KT 300V360 9999 FEW035 22/16 Q1018
  • 162030Z 33011KT 9999 SCT033 SCT085 22/16 Q1018

TAF TAF LZIB
Valid from the 16 at 18:00 until the 17 at 18:00 UTC


161700Z 1618/1718 34012KT 9999 FEW030 SCT070
TEMPO 1618/1620 -SHRA BKN040
BECMG 1620/1622 32006KT
BECMG 1706/1708 04010KT
No reported NOTAMs for that airfield.



MET'MAP, your aeronautical weather chart ! - Copyright ORBIFLY December 2007 - Disclaimer

ORBIFLY MET'MAP TEAM :

Programming & Development : Alexandra Zaïnal
Concept & Development : Baudouin d'Aumeries
Co-Development & Prog : Marc-Olivier Méhu
Technical & hardware support : Manuel Goepfert

Contact : metmap@orbifly.com




SOURCES & CREDITS :

   NOAA